Time;durP1;ratioP1;P1;durP2;ratioP2;P2;SDS_P1;SDS_P2;PMS_P1;PMS_P2;Temp;Humidity;BMP_temperature;BMP_pressure;BME280_temperature;BME280_humidity;BME280_pressure;Samples;Min_cycle;Max_cycle;Signal;HPM_P1;HPM_P2
2021/06/22 00:00:43;;;;;;;21.42;3.03;;;;;;;;;;5008546;28;20117;-43
2021/06/22 00:03:10;;;;;;;19.77;2.70;;;;;;;;;;4992743;28;20477;-43
2021/06/22 00:05:37;;;;;;;13.90;2.42;;;;;;;;;;5008849;28;20113;-41
2021/06/22 00:08:04;;;;;;;12.20;2.70;;;;;;;;;;5007041;28;20049;-45
2021/06/22 00:10:32;;;;;;;22.50;5.90;;;;;;;;;;5008084;28;20473;-39
2021/06/22 00:12:59;;;;;;;27.75;6.22;;;;;;;;;;5009252;28;20489;-41
2021/06/22 00:15:27;;;;;;;30.95;7.25;;;;;;;;;;4991695;28;20022;-35
2021/06/22 00:17:55;;;;;;;41.35;11.80;;;;;;;;;;5000711;28;20028;-39
2021/06/22 00:20:23;;;;;;;43.33;11.55;;;;;;;;;;5010163;28;20022;-37
2021/06/22 00:22:50;;;;;;;50.80;12.73;;;;;;;;;;5008769;28;20015;-40
2021/06/22 00:25:18;;;;;;;43.50;11.70;;;;;;;;;;5006787;28;20386;-39
2021/06/22 00:27:45;;;;;;;46.15;12.50;;;;;;;;;;5002029;28;20049;-40
2021/06/22 00:30:13;;;;;;;45.53;12.90;;;;;;;;;;5010061;28;20119;-37
2021/06/22 00:32:40;;;;;;;43.35;12.13;;;;;;;;;;5010283;28;20378;-40
2021/06/22 00:35:08;;;;;;;47.22;12.63;;;;;;;;;;5008516;28;20026;-40
2021/06/22 00:37:35;;;;;;;48.63;13.13;;;;;;;;;;5009662;28;20481;-37
2021/06/22 00:40:02;;;;;;;42.50;11.63;;;;;;;;;;5008654;28;20037;-36
2021/06/22 00:42:29;;;;;;;41.85;11.40;;;;;;;;;;5009171;28;20477;-33
2021/06/22 00:44:59;;;;;;;40.95;10.98;;;;;;;;;;5010957;28;20092;-33
2021/06/22 00:47:27;;;;;;;40.45;10.30;;;;;;;;;;5010561;28;20032;-37
2021/06/22 00:49:54;;;;;;;38.75;11.45;;;;;;;;;;5008292;28;20072;-35
2021/06/22 00:52:23;;;;;;;43.83;11.63;;;;;;;;;;5006422;28;20037;-33
2021/06/22 00:54:50;;;;;;;38.85;10.43;;;;;;;;;;5008108;28;20033;-33
2021/06/22 00:57:18;;;;;;;32.25;9.35;;;;;;;;;;5007474;28;20044;-35
2021/06/22 00:59:46;;;;;;;37.40;9.85;;;;;;;;;;5007342;28;20381;-34
2021/06/22 01:02:13;;;;;;;34.70;9.27;;;;;;;;;;5009113;28;20359;-36
2021/06/22 01:04:40;;;;;;;39.95;9.57;;;;;;;;;;5010197;28;21136;-33
2021/06/22 01:07:08;;;;;;;40.15;8.50;;;;;;;;;;5005405;28;20079;-33
2021/06/22 01:09:35;;;;;;;31.42;8.73;;;;;;;;;;5008015;28;20968;-33
2021/06/22 01:12:02;;;;;;;28.55;8.13;;;;;;;;;;5008573;28;20022;-42
2021/06/22 01:14:30;;;;;;;28.92;8.98;;;;;;;;;;5006877;28;20030;-35
2021/06/22 01:16:57;;;;;;;38.20;9.85;;;;;;;;;;5010202;28;20481;-34
2021/06/22 01:19:25;;;;;;;31.65;8.13;;;;;;;;;;5009131;28;20590;-40
2021/06/22 01:21:52;;;;;;;32.72;7.80;;;;;;;;;;5010340;28;20064;-33
2021/06/22 01:24:22;;;;;;;35.78;7.63;;;;;;;;;;5006707;28;20029;-44
2021/06/22 01:26:50;;;;;;;25.00;7.55;;;;;;;;;;5007758;28;20042;-40
2021/06/22 01:29:17;;;;;;;29.58;7.55;;;;;;;;;;5008076;28;20026;-35
2021/06/22 01:31:45;;;;;;;30.50;7.45;;;;;;;;;;5007598;28;20026;-42
2021/06/22 01:34:12;;;;;;;27.67;6.63;;;;;;;;;;5008499;28;20093;-39
2021/06/22 01:36:40;;;;;;;20.55;6.30;;;;;;;;;;5009545;28;20022;-34
2021/06/22 01:39:12;;;;;;;23.50;6.70;;;;;;;;;;5009187;28;20022;-37
2021/06/22 01:41:39;;;;;;;21.97;6.07;;;;;;;;;;5006511;28;20101;-35
2021/06/22 01:44:06;;;;;;;21.05;6.55;;;;;;;;;;5007016;28;20033;-35
2021/06/22 01:46:33;;;;;;;20.10;6.05;;;;;;;;;;5008402;28;20508;-40
2021/06/22 01:49:00;;;;;;;20.25;6.03;;;;;;;;;;5008197;28;20362;-40
2021/06/22 01:51:27;;;;;;;20.38;5.80;;;;;;;;;;5008959;28;20018;-33
2021/06/22 01:53:58;;;;;;;14.80;4.88;;;;;;;;;;5008885;28;20026;-36
2021/06/22 01:56:26;;;;;;;16.27;5.43;;;;;;;;;;5009777;28;20101;-37
2021/06/22 01:58:54;;;;;;;15.82;5.35;;;;;;;;;;5007317;28;20029;-35
2021/06/22 02:01:21;;;;;;;19.20;5.70;;;;;;;;;;5010602;28;20108;-38
2021/06/22 02:03:48;;;;;;;16.70;5.32;;;;;;;;;;5011025;28;20026;-45
2021/06/22 02:06:15;;;;;;;20.25;5.93;;;;;;;;;;5011739;28;20014;-39
2021/06/22 02:08:42;;;;;;;20.98;5.93;;;;;;;;;;5010787;28;20026;-35
2021/06/22 02:11:09;;;;;;;16.67;5.55;;;;;;;;;;5011303;28;20022;-35
2021/06/22 02:13:36;;;;;;;16.40;5.65;;;;;;;;;;5011013;28;20037;-35
2021/06/22 02:16:03;;;;;;;18.63;5.20;;;;;;;;;;5011190;28;20088;-39
2021/06/22 02:18:30;;;;;;;20.45;5.30;;;;;;;;;;5011447;28;20033;-35
2021/06/22 02:20:57;;;;;;;14.25;4.63;;;;;;;;;;5014448;28;20388;-35
2021/06/22 02:23:25;;;;;;;22.27;4.75;;;;;;;;;;5015553;28;20085;-35
2021/06/22 02:25:52;;;;;;;18.20;4.57;;;;;;;;;;5015159;28;20030;-34
2021/06/22 02:28:22;;;;;;;20.08;5.40;;;;;;;;;;5015397;28;20060;-35
2021/06/22 02:30:49;;;;;;;21.35;5.20;;;;;;;;;;5014730;28;20026;-36
2021/06/22 02:33:16;;;;;;;15.93;4.95;;;;;;;;;;5015521;28;20033;-38
2021/06/22 02:35:43;;;;;;;19.67;4.68;;;;;;;;;;5015042;28;20452;-37
2021/06/22 02:38:11;;;;;;;15.57;4.97;;;;;;;;;;5015389;28;20026;-37
2021/06/22 02:40:38;;;;;;;16.10;4.40;;;;;;;;;;5014702;28;20390;-36
2021/06/22 02:43:05;;;;;;;19.30;4.38;;;;;;;;;;5015313;28;20042;-36
2021/06/22 02:45:34;;;;;;;13.75;4.03;;;;;;;;;;5014477;28;20026;-36
2021/06/22 02:48:01;;;;;;;15.70;4.30;;;;;;;;;;5015551;28;20083;-36
2021/06/22 02:50:28;;;;;;;15.32;3.97;;;;;;;;;;5014303;28;20022;-37
2021/06/22 02:52:55;;;;;;;14.48;3.95;;;;;;;;;;5014998;28;20485;-38
2021/06/22 02:55:22;;;;;;;11.55;4.03;;;;;;;;;;5014963;28;20462;-36
2021/06/22 02:57:51;;;;;;;15.27;4.53;;;;;;;;;;5014750;28;20048;-37
2021/06/22 03:00:20;;;;;;;12.75;4.65;;;;;;;;;;5014502;28;20022;-37
2021/06/22 03:02:47;;;;;;;13.15;4.30;;;;;;;;;;5014441;28;20018;-37
2021/06/22 03:05:14;;;;;;;12.07;4.05;;;;;;;;;;5014914;28;20112;-35
2021/06/22 03:07:41;;;;;;;13.60;4.07;;;;;;;;;;5014297;28;20022;-38
2021/06/22 03:10:10;;;;;;;14.65;4.68;;;;;;;;;;5014591;28;20030;-37
2021/06/22 03:12:37;;;;;;;13.32;4.00;;;;;;;;;;5014289;28;20037;-37
2021/06/22 03:15:05;;;;;;;13.95;4.43;;;;;;;;;;5014326;28;20109;-36
2021/06/22 03:17:32;;;;;;;12.18;3.72;;;;;;;;;;5013889;28;20029;-38
2021/06/22 03:20:00;;;;;;;10.93;4.07;;;;;;;;;;5014606;28;20042;-37
2021/06/22 03:22:27;;;;;;;14.88;4.28;;;;;;;;;;5014236;28;21019;-35
2021/06/22 03:24:54;;;;;;;10.73;3.88;;;;;;;;;;5014072;28;20032;-37
2021/06/22 03:27:21;;;;;;;10.90;3.75;;;;;;;;;;5014526;28;20046;-37
2021/06/22 03:29:48;;;;;;;9.85;3.65;;;;;;;;;;5013699;28;20488;-38
2021/06/22 03:32:15;;;;;;;11.55;3.92;;;;;;;;;;5013203;28;20030;-36
2021/06/22 03:34:42;;;;;;;11.63;3.40;;;;;;;;;;5013922;28;20036;-37
2021/06/22 03:37:09;;;;;;;11.93;3.90;;;;;;;;;;5014499;28;20025;-37
2021/06/22 03:39:36;;;;;;;9.80;3.22;;;;;;;;;;5013750;28;20034;-37
2021/06/22 03:42:04;;;;;;;10.40;3.47;;;;;;;;;;5014265;28;20029;-36
2021/06/22 03:44:33;;;;;;;12.25;3.50;;;;;;;;;;5013425;28;20038;-37
2021/06/22 03:47:01;;;;;;;14.32;3.72;;;;;;;;;;5014003;28;20026;-36
2021/06/22 03:49:28;;;;;;;9.70;3.55;;;;;;;;;;5014338;28;20022;-37
2021/06/22 03:51:55;;;;;;;9.93;3.88;;;;;;;;;;5013135;28;20033;-36
2021/06/22 03:54:22;;;;;;;10.38;3.30;;;;;;;;;;5013614;28;20362;-37
2021/06/22 03:56:49;;;;;;;10.45;3.20;;;;;;;;;;5013602;28;20026;-38
2021/06/22 03:59:16;;;;;;;10.60;3.78;;;;;;;;;;5014132;28;20033;-37
2021/06/22 04:01:43;;;;;;;9.32;3.38;;;;;;;;;;5013039;28;20542;-37
2021/06/22 04:04:10;;;;;;;8.10;3.03;;;;;;;;;;5013914;28;20033;-37
2021/06/22 04:06:37;;;;;;;9.98;3.35;;;;;;;;;;5013273;28;20014;-38
2021/06/22 04:09:05;;;;;;;9.55;3.42;;;;;;;;;;5013861;28;20053;-38
2021/06/22 04:11:32;;;;;;;10.30;3.03;;;;;;;;;;5013236;28;20010;-37
2021/06/22 04:13:59;;;;;;;9.88;2.92;;;;;;;;;;5013486;28;20165;-36
2021/06/22 04:16:26;;;;;;;8.65;3.80;;;;;;;;;;5013552;28;20049;-37
2021/06/22 04:18:53;;;;;;;8.10;3.00;;;;;;;;;;5013093;28;20033;-37
2021/06/22 04:21:20;;;;;;;10.38;2.80;;;;;;;;;;5013476;28;20097;-37
2021/06/22 04:23:47;;;;;;;7.00;3.40;;;;;;;;;;5012709;28;20068;-37
2021/06/22 04:26:16;;;;;;;8.18;2.88;;;;;;;;;;5012623;28;20050;-38
2021/06/22 04:28:44;;;;;;;8.07;2.67;;;;;;;;;;5012996;28;20025;-36
2021/06/22 04:31:11;;;;;;;7.40;2.42;;;;;;;;;;5013022;28;20450;-37
2021/06/22 04:33:38;;;;;;;9.63;3.20;;;;;;;;;;5012621;28;20464;-36
2021/06/22 04:36:05;;;;;;;9.55;3.28;;;;;;;;;;5013473;28;20029;-36
2021/06/22 04:38:32;;;;;;;8.60;2.78;;;;;;;;;;5012723;28;20113;-36
2021/06/22 04:40:59;;;;;;;8.40;2.53;;;;;;;;;;4995573;28;20018;-37
2021/06/22 04:43:26;;;;;;;7.07;2.47;;;;;;;;;;5012837;28;20025;-35
2021/06/22 04:45:53;;;;;;;7.22;2.75;;;;;;;;;;5012455;28;20022;-38
2021/06/22 04:48:20;;;;;;;8.02;3.25;;;;;;;;;;5012627;28;20025;-37
2021/06/22 04:50:48;;;;;;;10.15;2.33;;;;;;;;;;5012676;28;20021;-36
2021/06/22 04:53:15;;;;;;;7.70;3.03;;;;;;;;;;5012573;28;20030;-36
2021/06/22 04:55:42;;;;;;;5.45;2.60;;;;;;;;;;5012150;28;20018;-36
2021/06/22 04:58:09;;;;;;;8.18;2.78;;;;;;;;;;5012965;28;20153;-37
2021/06/22 05:00:36;;;;;;;5.97;2.15;;;;;;;;;;5012179;28;20026;-36
2021/06/22 05:03:03;;;;;;;8.68;2.63;;;;;;;;;;5012747;28;20069;-35
2021/06/22 05:05:30;;;;;;;7.90;2.58;;;;;;;;;;5012231;28;20022;-35
2021/06/22 05:07:58;;;;;;;8.63;2.78;;;;;;;;;;5012714;28;20496;-37
2021/06/22 05:10:25;;;;;;;5.82;2.88;;;;;;;;;;5011879;28;20421;-36
2021/06/22 05:12:52;;;;;;;7.45;2.53;;;;;;;;;;5012627;28;20588;-37
2021/06/22 05:15:20;;;;;;;7.65;2.15;;;;;;;;;;5012558;28;20022;-34
2021/06/22 05:17:47;;;;;;;5.43;2.60;;;;;;;;;;5012186;28;20053;-36
2021/06/22 05:20:14;;;;;;;6.75;2.22;;;;;;;;;;5007408;28;20076;-36
2021/06/22 05:22:41;;;;;;;5.43;2.22;;;;;;;;;;5003209;28;20022;-36
2021/06/22 05:25:09;;;;;;;6.70;2.63;;;;;;;;;;4999786;28;20060;-37
2021/06/22 05:27:36;;;;;;;7.28;2.50;;;;;;;;;;5011049;28;20457;-36
2021/06/22 05:30:03;;;;;;;5.28;2.67;;;;;;;;;;5012244;28;20022;-36
2021/06/22 05:32:30;;;;;;;6.90;2.00;;;;;;;;;;5010791;28;20120;-36
2021/06/22 05:34:58;;;;;;;6.13;2.40;;;;;;;;;;5012278;28;20026;-37
2021/06/22 05:37:25;;;;;;;5.72;2.25;;;;;;;;;;5012047;28;20485;-36
2021/06/22 05:39:52;;;;;;;4.93;1.92;;;;;;;;;;5012164;28;20052;-37
2021/06/22 05:42:19;;;;;;;4.38;2.08;;;;;;;;;;5011673;28;20054;-36
2021/06/22 05:44:46;;;;;;;5.05;1.95;;;;;;;;;;5012535;28;20105;-37
2021/06/22 05:47:13;;;;;;;5.50;2.17;;;;;;;;;;5011769;28;20018;-35
2021/06/22 05:49:40;;;;;;;5.93;2.40;;;;;;;;;;5011866;28;20413;-36
2021/06/22 05:52:07;;;;;;;4.05;1.95;;;;;;;;;;5012366;28;20104;-36
2021/06/22 05:54:34;;;;;;;3.72;1.88;;;;;;;;;;5011791;28;20489;-35
2021/06/22 05:57:01;;;;;;;5.72;1.88;;;;;;;;;;5016345;28;20057;-36
2021/06/22 05:59:28;;;;;;;5.35;2.10;;;;;;;;;;5015841;28;20143;-35
2021/06/22 06:01:56;;;;;;;4.75;1.95;;;;;;;;;;5016133;28;20105;-36
2021/06/22 06:04:23;;;;;;;5.32;2.00;;;;;;;;;;5015351;28;20018;-37
2021/06/22 06:06:50;;;;;;;3.70;1.88;;;;;;;;;;5016174;28;20474;-36
2021/06/22 06:09:17;;;;;;;7.70;1.90;;;;;;;;;;5015223;28;20113;-36
2021/06/22 06:11:44;;;;;;;4.18;2.13;;;;;;;;;;5015990;28;20026;-37
2021/06/22 06:14:11;;;;;;;3.28;1.83;;;;;;;;;;5015530;28;21119;-37
2021/06/22 06:16:38;;;;;;;3.58;1.48;;;;;;;;;;5015861;28;20033;-36
2021/06/22 06:19:06;;;;;;;4.22;1.65;;;;;;;;;;4998108;28;20393;-35
2021/06/22 06:21:33;;;;;;;4.10;1.92;;;;;;;;;;5015661;28;20021;-36
2021/06/22 06:24:00;;;;;;;6.47;2.42;;;;;;;;;;5015341;28;20033;-35
2021/06/22 06:26:31;;;;;;;5.07;1.70;;;;;;;;;;5014681;28;20129;-36
2021/06/22 06:29:08;;;;;;;5.32;1.95;;;;;;;;;;5015669;28;20388;-35
2021/06/22 06:31:35;;;;;;;3.45;1.67;;;;;;;;;;5015407;28;20021;-36
2021/06/22 06:34:02;;;;;;;4.28;1.83;;;;;;;;;;5015206;28;20088;-35
2021/06/22 06:36:29;;;;;;;4.63;1.52;;;;;;;;;;5014598;28;20101;-37
2021/06/22 06:38:56;;;;;;;3.38;1.70;;;;;;;;;;5015562;28;20080;-37
2021/06/22 06:41:23;;;;;;;3.40;1.48;;;;;;;;;;5014977;28;20033;-35
2021/06/22 06:43:50;;;;;;;4.68;1.98;;;;;;;;;;5014868;28;20026;-37
2021/06/22 06:46:17;;;;;;;4.35;1.73;;;;;;;;;;5015231;28;20105;-36
2021/06/22 06:48:44;;;;;;;2.67;1.48;;;;;;;;;;5014774;28;20097;-36
2021/06/22 06:51:11;;;;;;;3.30;1.52;;;;;;;;;;5015023;28;20512;-35
2021/06/22 06:53:38;;;;;;;5.45;1.88;;;;;;;;;;5014358;28;20038;-36
2021/06/22 06:56:05;;;;;;;4.38;2.03;;;;;;;;;;5015163;28;20018;-36
2021/06/22 06:58:32;;;;;;;2.70;1.58;;;;;;;;;;5014465;28;20096;-35
2021/06/22 07:00:59;;;;;;;4.85;1.63;;;;;;;;;;5015376;28;20414;-35
2021/06/22 07:03:26;;;;;;;3.28;1.60;;;;;;;;;;5014204;28;20105;-36
2021/06/22 07:05:53;;;;;;;2.70;1.50;;;;;;;;;;5014604;28;20168;-37
2021/06/22 07:08:20;;;;;;;5.85;1.75;;;;;;;;;;5014546;28;20033;-37
2021/06/22 07:10:47;;;;;;;3.33;1.60;;;;;;;;;;5014782;28;20022;-36
2021/06/22 07:13:16;;;;;;;3.33;1.70;;;;;;;;;;5014613;28;20476;-36
2021/06/22 07:15:43;;;;;;;4.15;1.35;;;;;;;;;;5014053;28;20374;-35
2021/06/22 07:18:11;;;;;;;2.97;1.42;;;;;;;;;;5014589;28;20010;-35
2021/06/22 07:20:38;;;;;;;2.53;1.60;;;;;;;;;;5014112;28;20026;-35
2021/06/22 07:23:05;;;;;;;2.85;1.52;;;;;;;;;;5014681;28;20018;-35
2021/06/22 07:25:32;;;;;;;3.83;1.60;;;;;;;;;;5013919;28;20044;-35
2021/06/22 07:27:59;;;;;;;4.55;1.63;;;;;;;;;;5014368;28;20454;-35
2021/06/22 07:30:27;;;;;;;4.65;1.35;;;;;;;;;;5014125;28;20080;-37
2021/06/22 07:32:54;;;;;;;2.17;1.23;;;;;;;;;;5014342;28;20048;-36
2021/06/22 07:35:23;;;;;;;2.60;1.20;;;;;;;;;;5013512;28;20049;-37
2021/06/22 07:37:50;;;;;;;3.15;1.48;;;;;;;;;;5014334;28;20033;-36
2021/06/22 07:40:17;;;;;;;2.92;1.40;;;;;;;;;;5013983;28;20029;-36
2021/06/22 07:42:44;;;;;;;3.83;1.48;;;;;;;;;;5014109;28;20113;-37
2021/06/22 07:45:12;;;;;;;3.15;1.30;;;;;;;;;;5013948;28;20029;-35
2021/06/22 07:47:39;;;;;;;3.35;1.40;;;;;;;;;;5013968;28;20053;-36
2021/06/22 07:50:07;;;;;;;2.60;1.48;;;;;;;;;;5013989;28;20026;-36
2021/06/22 07:52:34;;;;;;;3.13;1.60;;;;;;;;;;5013353;28;20029;-37
2021/06/22 07:55:01;;;;;;;2.47;1.58;;;;;;;;;;5013758;28;20158;-36
2021/06/22 07:57:28;;;;;;;2.67;1.55;;;;;;;;;;5013627;28;20030;-37
2021/06/22 07:59:55;;;;;;;4.13;1.20;;;;;;;;;;5013915;28;20104;-36
2021/06/22 08:02:22;;;;;;;2.55;1.38;;;;;;;;;;5013372;28;20034;-36
2021/06/22 08:04:49;;;;;;;4.35;1.42;;;;;;;;;;5013627;28;20469;-37
2021/06/22 08:07:16;;;;;;;2.38;1.27;;;;;;;;;;5013371;28;20405;-37
2021/06/22 08:09:43;;;;;;;2.55;1.15;;;;;;;;;;5013802;28;20488;-36
2021/06/22 08:12:10;;;;;;;3.55;1.23;;;;;;;;;;5013590;28;20065;-35
2021/06/22 08:14:38;;;;;;;3.72;1.70;;;;;;;;;;5012915;28;20037;-36
2021/06/22 08:17:05;;;;;;;2.40;1.30;;;;;;;;;;5013066;28;20032;-36
2021/06/22 08:19:32;;;;;;;2.67;1.27;;;;;;;;;;5012954;28;20029;-37
2021/06/22 08:22:02;;;;;;;1.92;1.20;;;;;;;;;;5013630;28;20040;-36
2021/06/22 08:24:29;;;;;;;5.63;1.17;;;;;;;;;;5013138;28;20072;-36
2021/06/22 08:26:56;;;;;;;4.60;1.45;;;;;;;;;;5012929;28;20460;-36
2021/06/22 08:29:23;;;;;;;3.63;1.38;;;;;;;;;;5012801;28;20109;-35
2021/06/22 08:31:50;;;;;;;7.55;1.30;;;;;;;;;;5013366;28;20040;-36
2021/06/22 08:34:17;;;;;;;2.13;1.17;;;;;;;;;;5012361;28;20085;-35
2021/06/22 08:36:44;;;;;;;2.42;1.27;;;;;;;;;;5013123;28;20020;-41
2021/06/22 08:39:11;;;;;;;2.00;1.25;;;;;;;;;;5013391;28;20013;-35
2021/06/22 08:41:39;;;;;;;2.35;1.20;;;;;;;;;;5012717;28;20359;-38
2021/06/22 08:44:08;;;;;;;3.30;1.13;;;;;;;;;;5013015;28;20362;-35
2021/06/22 08:46:36;;;;;;;3.00;1.25;;;;;;;;;;5012484;28;20022;-36
2021/06/22 08:49:04;;;;;;;3.75;1.50;;;;;;;;;;5013269;28;20072;-36
2021/06/22 08:51:31;;;;;;;1.95;1.10;;;;;;;;;;5012656;28;20032;-36
2021/06/22 08:53:59;;;;;;;2.25;1.13;;;;;;;;;;5012726;28;20489;-36
2021/06/22 08:56:26;;;;;;;2.25;1.25;;;;;;;;;;5012355;28;20505;-38
2021/06/22 08:58:53;;;;;;;2.88;1.50;;;;;;;;;;5012913;28;20014;-35
2021/06/22 09:01:20;;;;;;;2.55;1.23;;;;;;;;;;5012133;28;20481;-37
2021/06/22 09:03:48;;;;;;;1.55;0.95;;;;;;;;;;5012928;28;20075;-37
2021/06/22 09:06:15;;;;;;;1.88;1.17;;;;;;;;;;5012212;28;20032;-35
2021/06/22 09:08:50;;;;;;;1.92;1.00;;;;;;;;;;5012783;28;20523;-35
2021/06/22 09:11:18;;;;;;;2.85;1.05;;;;;;;;;;5013011;28;20025;-37
2021/06/22 09:13:55;;;;;;;1.58;1.00;;;;;;;;;;5012253;28;20034;-36
2021/06/22 09:16:22;;;;;;;2.00;1.17;;;;;;;;;;5012337;28;20105;-36
2021/06/22 09:18:49;;;;;;;2.65;1.35;;;;;;;;;;5012201;28;20473;-36
2021/06/22 09:21:24;;;;;;;2.17;1.20;;;;;;;;;;5012832;28;20076;-36
2021/06/22 09:23:53;;;;;;;2.63;1.20;;;;;;;;;;5012118;28;20026;-36
2021/06/22 09:26:20;;;;;;;2.00;1.40;;;;;;;;;;5011771;28;20076;-35
2021/06/22 09:28:47;;;;;;;2.35;1.33;;;;;;;;;;5011781;28;20062;-36
2021/06/22 09:31:15;;;;;;;2.60;1.23;;;;;;;;;;5012626;28;20053;-36
2021/06/22 09:33:43;;;;;;;1.75;1.20;;;;;;;;;;5011882;28;20088;-36
2021/06/22 09:36:10;;;;;;;3.35;1.17;;;;;;;;;;5012010;28;20030;-35
2021/06/22 09:38:42;;;;;;;2.63;1.23;;;;;;;;;;5012436;28;20038;-36
2021/06/22 09:41:11;;;;;;;4.07;1.10;;;;;;;;;;5011813;28;20104;-36
2021/06/22 09:44:01;;;;;;;1.55;1.02;;;;;;;;;;5012129;28;20107;-36
2021/06/22 09:46:39;;;;;;;2.80;1.20;;;;;;;;;;5003985;28;20474;-36
2021/06/22 09:49:07;;;;;;;4.55;1.50;;;;;;;;;;5012277;28;20064;-35
2021/06/22 09:52:03;;;;;;;1.65;1.10;;;;;;;;;;5011877;28;20022;-35
2021/06/22 09:54:34;;;;;;;1.85;1.13;;;;;;;;;;5012066;28;20124;-42
2021/06/22 09:57:03;;;;;;;1.95;1.30;;;;;;;;;;5011706;28;20029;-44
2021/06/22 09:59:32;;;;;;;1.50;0.90;;;;;;;;;;5012020;28;20033;-42
2021/06/22 10:02:08;;;;;;;2.03;1.13;;;;;;;;;;5011713;28;20018;-41
2021/06/22 10:04:36;;;;;;;1.58;1.00;;;;;;;;;;5011416;28;20088;-41
2021/06/22 10:07:03;;;;;;;2.15;1.13;;;;;;;;;;5011067;28;20145;-41
2021/06/22 10:09:31;;;;;;;1.50;0.90;;;;;;;;;;5011786;28;20034;-42
2021/06/22 10:11:59;;;;;;;2.15;1.20;;;;;;;;;;5011248;28;20033;-41
2021/06/22 10:14:31;;;;;;;2.60;1.20;;;;;;;;;;5011700;28;20485;-46
2021/06/22 10:16:59;;;;;;;2.55;1.42;;;;;;;;;;5011046;28;20108;-34
2021/06/22 10:19:27;;;;;;;1.77;0.82;;;;;;;;;;5011829;28;20106;-34
2021/06/22 10:21:54;;;;;;;2.00;1.10;;;;;;;;;;5011566;28;20045;-33
2021/06/22 10:24:22;;;;;;;2.08;1.10;;;;;;;;;;5011599;28;20022;-35
2021/06/22 10:26:49;;;;;;;1.88;0.80;;;;;;;;;;5010717;28;20128;-34
2021/06/22 10:29:18;;;;;;;1.90;1.00;;;;;;;;;;5011727;28;20105;-39
2021/06/22 10:31:46;;;;;;;1.50;1.10;;;;;;;;;;5010380;28;20038;-34
2021/06/22 10:34:13;;;;;;;2.08;1.20;;;;;;;;;;5010860;28;20042;-35
2021/06/22 10:36:45;;;;;;;4.78;1.20;;;;;;;;;;5011146;28;20026;-38
2021/06/22 10:39:17;;;;;;;5.32;1.50;;;;;;;;;;5007027;28;20501;-40
2021/06/22 10:41:46;;;;;;;2.40;1.05;;;;;;;;;;4995867;28;20058;-39
2021/06/22 10:44:25;;;;;;;5.03;1.45;;;;;;;;;;4999650;28;20080;-39
2021/06/22 10:47:10;;;;;;;1.48;0.90;;;;;;;;;;5009622;28;20018;-40
2021/06/22 10:49:56;;;;;;;4.20;1.45;;;;;;;;;;4997762;28;20072;-38
2021/06/22 10:52:45;;;;;;;4.63;1.33;;;;;;;;;;4998876;28;20038;-38
2021/06/22 10:55:22;;;;;;;3.95;1.38;;;;;;;;;;5005625;28;20038;-39
2021/06/22 10:58:10;;;;;;;2.90;1.15;;;;;;;;;;5000095;28;20092;-41
2021/06/22 11:00:40;;;;;;;5.15;1.10;;;;;;;;;;5003921;28;20034;-38
2021/06/22 11:03:13;;;;;;;3.60;1.33;;;;;;;;;;5000593;28;20034;-38
2021/06/22 11:05:41;;;;;;;2.05;1.30;;;;;;;;;;5000440;28;20056;-38
2021/06/22 11:08:17;;;;;;;2.97;1.17;;;;;;;;;;5011855;28;20014;-39
2021/06/22 11:10:56;;;;;;;4.65;1.20;;;;;;;;;;5008804;28;20068;-42
2021/06/22 11:13:39;;;;;;;4.85;1.40;;;;;;;;;;5008595;28;20092;-39
2021/06/22 11:16:22;;;;;;;2.38;1.20;;;;;;;;;;5011179;28;20034;-41
2021/06/22 11:18:55;;;;;;;6.50;1.25;;;;;;;;;;5003373;28;20533;-41
2021/06/22 11:21:22;;;;;;;21.70;2.33;;;;;;;;;;5006272;28;20091;-40
2021/06/22 11:24:00;;;;;;;22.80;3.50;;;;;;;;;;5011242;28;20022;-38
2021/06/22 11:26:28;;;;;;;742.88;56.67;;;;;;;;;;5012165;28;20052;-40
2021/06/22 11:28:55;;;;;;;387.10;28.52;;;;;;;;;;5012714;28;20029;-46
2021/06/22 11:31:34;;;;;;;115.70;8.80;;;;;;;;;;5012359;28;20477;-36
2021/06/22 11:34:19;;;;;;;64.82;7.45;;;;;;;;;;5012137;28;20042;-35
2021/06/22 11:36:48;;;;;;;58.85;5.60;;;;;;;;;;5011727;28;20485;-35
2021/06/22 11:39:22;;;;;;;36.22;4.68;;;;;;;;;;5007367;28;20410;-35
2021/06/22 11:42:11;;;;;;;50.75;5.78;;;;;;;;;;5012289;28;20082;-36
2021/06/22 11:45:07;;;;;;;37.78;4.57;;;;;;;;;;5012919;28;20455;-40
2021/06/22 11:47:36;;;;;;;29.08;5.15;;;;;;;;;;5003728;28;20064;-33
2021/06/22 11:50:12;;;;;;;31.52;6.03;;;;;;;;;;5008011;28;20033;-34
2021/06/22 11:52:40;;;;;;;35.10;4.50;;;;;;;;;;5006750;28;20428;-35
2021/06/22 11:55:15;;;;;;;18.80;4.25;;;;;;;;;;5004572;28;20034;-35
2021/06/22 11:57:55;;;;;;;18.88;3.10;;;;;;;;;;5008847;28;20605;-34
2021/06/22 12:00:23;;;;;;;17.25;3.50;;;;;;;;;;5007475;28;20032;-35
2021/06/22 12:02:55;;;;;;;20.40;3.63;;;;;;;;;;5006070;28;20127;-35
2021/06/22 12:05:24;;;;;;;29.43;3.53;;;;;;;;;;5010697;28;20104;-38
2021/06/22 12:07:52;;;;;;;30.42;3.78;;;;;;;;;;5009257;28;20273;-36
2021/06/22 12:10:20;;;;;;;39.03;4.75;;;;;;;;;;4986839;28;20377;-38
2021/06/22 12:12:48;;;;;;;43.42;4.78;;;;;;;;;;5003098;28;20019;-36
2021/06/22 12:15:27;;;;;;;36.53;4.50;;;;;;;;;;5005324;28;20082;-48
2021/06/22 12:17:54;;;;;;;35.75;4.80;;;;;;;;;;5011491;28;20022;-51
2021/06/22 12:20:28;;;;;;;27.65;3.80;;;;;;;;;;5006653;28;20639;-40
2021/06/22 12:23:12;;;;;;;28.20;3.22;;;;;;;;;;5009353;28;20036;-39
2021/06/22 12:25:45;;;;;;;23.52;3.63;;;;;;;;;;5008728;28;20029;-42
2021/06/22 12:28:13;;;;;;;24.73;3.13;;;;;;;;;;5010884;28;20014;-37
2021/06/22 12:30:40;;;;;;;17.80;2.97;;;;;;;;;;5003437;28;20024;-40
2021/06/22 12:33:08;;;;;;;20.02;3.70;;;;;;;;;;5000510;28;20030;-39
2021/06/22 12:35:35;;;;;;;17.83;3.25;;;;;;;;;;5004703;28;20444;-38
2021/06/22 12:38:06;;;;;;;23.67;3.25;;;;;;;;;;5005348;28;20026;-50
2021/06/22 12:40:38;;;;;;;16.30;2.75;;;;;;;;;;5008731;28;20029;-46
2021/06/22 12:43:05;;;;;;;10.27;2.80;;;;;;;;;;5010828;28;20030;-37
2021/06/22 12:45:33;;;;;;;17.35;4.25;;;;;;;;;;5005158;28;20026;-39
2021/06/22 12:48:00;;;;;;;22.75;2.80;;;;;;;;;;5006629;28;20478;-42
2021/06/22 12:50:32;;;;;;;11.75;3.00;;;;;;;;;;5003991;28;20033;-39
2021/06/22 12:52:59;;;;;;;18.73;3.25;;;;;;;;;;5000265;28;20046;-39
2021/06/22 12:55:42;;;;;;;19.58;4.18;;;;;;;;;;5010034;28;20033;-44
2021/06/22 12:58:10;;;;;;;14.45;4.10;;;;;;;;;;5001411;28;20018;-38
2021/06/22 13:00:37;;;;;;;16.60;4.07;;;;;;;;;;5010392;28;20561;-36
2021/06/22 13:03:12;;;;;;;14.60;4.85;;;;;;;;;;5004413;28;20647;-42
2021/06/22 13:05:40;;;;;;;24.25;4.28;;;;;;;;;;5007512;28;20076;-43
2021/06/22 13:08:10;;;;;;;18.50;4.40;;;;;;;;;;5000499;28;20034;-35
2021/06/22 13:10:47;;;;;;;17.40;4.72;;;;;;;;;;5000899;28;20508;-38
2021/06/22 13:13:21;;;;;;;19.23;3.95;;;;;;;;;;5007735;28;20033;-39
2021/06/22 13:15:48;;;;;;;16.75;4.93;;;;;;;;;;5005634;28;20109;-37
2021/06/22 13:18:15;;;;;;;18.70;4.38;;;;;;;;;;5005975;28;20018;-39
2021/06/22 13:20:43;;;;;;;25.35;5.30;;;;;;;;;;5000023;28;20105;-43
2021/06/22 13:23:10;;;;;;;26.25;4.72;;;;;;;;;;5008854;28;20117;-38
2021/06/22 13:25:39;;;;;;;18.05;4.18;;;;;;;;;;5007569;28;20448;-46
2021/06/22 13:28:10;;;;;;;26.23;4.30;;;;;;;;;;5000553;28;20078;-36
2021/06/22 13:30:39;;;;;;;17.77;4.10;;;;;;;;;;5001775;28;20109;-38
2021/06/22 13:33:06;;;;;;;18.10;4.05;;;;;;;;;;4999716;28;20540;-38
2021/06/22 13:35:39;;;;;;;16.95;4.20;;;;;;;;;;5006531;28;20034;-38
2021/06/22 13:38:08;;;;;;;22.25;4.80;;;;;;;;;;5006608;28;20372;-43
2021/06/22 13:40:55;;;;;;;18.17;4.28;;;;;;;;;;4990219;28;20041;-40
2021/06/22 13:43:23;;;;;;;20.85;4.65;;;;;;;;;;5005566;28;20112;-39
2021/06/22 13:45:50;;;;;;;13.68;4.88;;;;;;;;;;5001658;28;20101;-48
2021/06/22 13:48:18;;;;;;;9.70;4.47;;;;;;;;;;5007604;28;20068;-41
2021/06/22 13:50:46;;;;;;;7.28;4.55;;;;;;;;;;5006819;28;20109;-42
2021/06/22 13:53:24;;;;;;;7.10;4.78;;;;;;;;;;5009109;28;20037;-37
2021/06/22 13:56:09;;;;;;;9.57;4.80;;;;;;;;;;5007168;28;20021;-42
2021/06/22 13:58:36;;;;;;;8.63;4.50;;;;;;;;;;5008909;28;20088;-38
2021/06/22 14:01:04;;;;;;;11.43;4.85;;;;;;;;;;5006258;28;20022;-41
2021/06/22 14:03:31;;;;;;;7.38;4.25;;;;;;;;;;5008201;28;20025;-45
2021/06/22 14:05:58;;;;;;;6.57;4.20;;;;;;;;;;5006949;28;20018;-47
2021/06/22 14:08:25;;;;;;;7.00;4.10;;;;;;;;;;5008748;28;20128;-44
2021/06/22 14:10:58;;;;;;;7.28;4.78;;;;;;;;;;5008081;28;20030;-46
2021/06/22 14:13:27;;;;;;;7.30;3.90;;;;;;;;;;5003425;28;20389;-39
2021/06/22 14:15:54;;;;;;;7.25;4.00;;;;;;;;;;5006974;28;20034;-40
2021/06/22 14:18:22;;;;;;;5.55;4.00;;;;;;;;;;5014496;28;20025;-52
2021/06/22 14:20:49;;;;;;;10.45;3.95;;;;;;;;;;5010580;28;20130;-43
2021/06/22 14:23:17;;;;;;;13.88;4.13;;;;;;;;;;5009975;28;20037;-47
2021/06/22 14:25:44;;;;;;;17.77;4.38;;;;;;;;;;5009284;28;20033;-39
2021/06/22 14:28:16;;;;;;;31.38;4.82;;;;;;;;;;5012966;28;20034;-40
2021/06/22 14:30:58;;;;;;;149.95;15.52;;;;;;;;;;5006243;28;20034;-41
2021/06/22 14:33:27;;;;;;;35.60;5.72;;;;;;;;;;5006031;28;20049;-38
2021/06/22 14:35:55;;;;;;;33.25;4.95;;;;;;;;;;5006198;28;20393;-32
2021/06/22 14:38:23;;;;;;;29.83;4.85;;;;;;;;;;5002760;28;20097;-41
2021/06/22 14:40:50;;;;;;;15.73;4.22;;;;;;;;;;5008425;28;20018;-39
2021/06/22 14:43:17;;;;;;;13.75;4.18;;;;;;;;;;5008458;28;20500;-38
2021/06/22 14:45:44;;;;;;;16.58;3.65;;;;;;;;;;4995916;28;20029;-39